Terminal Aerodrome Forecast
Issued by NWS

Home | Current Version | Previous Version | Text Only | Print | Product List | Glossary On
Versions: 1 2 3 4 5 6 7 8 9 10 11 12 13 14 15 16 17 18 19
644
FTUS42 KTBW 031747
TAFRSW
TAF
KRSW 031747Z 0318/0418 08012KT P6SM FEW250
     FM040200 09006KT P6SM SCT250
     FM041500 12012G20KT P6SM BKN250=

USA.gov is the U.S. government's official web portal to all federal, state and local government web resources and services.